Time,TemperatureF,DewpointF,PressureIn,WindDirection,WindDirectionDegrees,WindSpeedMPH,WindSpeedGustMPH,Humidity,HourlyPrecipIn,Conditions,Clouds,dailyrainin,SoftwareType,DateUTC
2013-04-24 00:10:00,37.9,36.0,30.03,NNW,336,2.0,4.0,91,0.01,,,0.00,weatherlink.com 1.10,2013-04-24 05:10:00,
2013-04-24 00:25:00,37.6,36.0,30.03,NNW,339,2.0,6.0,92,0.01,,,0.00,weatherlink.com 1.10,2013-04-24 05:25:00,
2013-04-24 00:40:00,37.5,35.0,30.03,North,354,1.0,2.0,91,0.02,,,0.01,weatherlink.com 1.10,2013-04-24 05:40:00,
2013-04-24 00:55:00,37.4,35.0,30.04,West,278,10.0,10.0,92,0.02,,,0.01,weatherlink.com 1.10,2013-04-24 05:55:00,
2013-04-24 01:11:00,37.4,35.0,30.04,NNW,329,1.0,6.0,90,0.01,,,0.01,weatherlink.com 1.10,2013-04-24 06:11:00,
2013-04-24 01:26:00,37.0,34.0,30.04,NNW,335,2.0,4.0,90,0.02,,,0.02,weatherlink.com 1.10,2013-04-24 06:26:00,
2013-04-24 01:41:00,36.3,34.0,30.02,NW,319,2.0,4.0,91,0.02,,,0.03,weatherlink.com 1.10,2013-04-24 06:41:00,
2013-04-24 01:56:00,35.8,34.0,30.02,NNW,337,0.0,2.0,92,0.03,,,0.04,weatherlink.com 1.10,2013-04-24 06:56:00,
2013-04-24 02:11:00,35.6,34.0,30.01,North,6,1.0,2.0,93,0.03,,,0.04,weatherlink.com 1.10,2013-04-24 07:11:00,
2013-04-24 02:26:00,35.5,34.0,30.01,North,8,0.0,0.0,93,0.02,,,0.04,weatherlink.com 1.10,2013-04-24 07:26:00,
2013-04-24 02:41:00,35.6,34.0,30.02,NW,304,0.0,0.0,93,0.01,,,0.04,weatherlink.com 1.10,2013-04-24 07:41:00,
2013-04-24 02:56:00,35.7,34.0,30.03,WNW,282,1.0,1.0,94,0.00,,,0.04,weatherlink.com 1.10,2013-04-24 07:56:00,
2013-04-24 03:11:00,35.8,34.0,30.04,North,1,2.0,3.0,93,0.00,,,0.04,weatherlink.com 1.10,2013-04-24 08:11:00,
2013-04-24 03:26:00,35.7,34.0,30.05,NW,318,0.0,10.0,92,0.00,,,0.04,weatherlink.com 1.10,2013-04-24 08:26:00,
2013-04-24 03:41:00,35.4,34.0,30.04,North,4,2.0,5.0,93,0.01,,,0.05,weatherlink.com 1.10,2013-04-24 08:41:00,
2013-04-24 03:56:00,35.3,34.0,30.05,NW,308,0.0,2.0,94,0.01,,,0.05,weatherlink.com 1.10,2013-04-24 08:56:00,
2013-04-24 04:11:00,35.3,34.0,30.05,NW,307,0.0,0.0,94,0.01,,,0.05,weatherlink.com 1.10,2013-04-24 09:11:00,
2013-04-24 04:26:00,35.4,34.0,30.05,NW,307,0.0,0.0,94,0.01,,,0.05,weatherlink.com 1.10,2013-04-24 09:26:00,
2013-04-24 04:41:00,35.6,34.0,30.05,WNW,300,0.0,2.0,94,0.00,,,0.05,weatherlink.com 1.10,2013-04-24 09:41:00,
2013-04-24 04:56:00,35.8,34.0,30.06,West,270,0.0,1.0,94,0.00,,,0.05,weatherlink.com 1.10,2013-04-24 09:56:00,
2013-04-24 05:11:00,35.8,34.0,30.06,West,272,1.0,2.0,93,0.00,,,0.05,weatherlink.com 1.10,2013-04-24 10:11:00,
2013-04-24 05:26:00,35.9,34.0,30.05,NW,316,1.0,4.0,92,0.00,,,0.05,weatherlink.com 1.10,2013-04-24 10:26:00,
2013-04-24 05:41:00,36.0,34.0,30.05,WNW,302,7.0,7.0,92,0.00,,,0.05,weatherlink.com 1.10,2013-04-24 10:41:00,
2013-04-24 05:56:00,36.1,34.0,30.06,NW,307,6.0,8.0,90,0.00,,,0.05,weatherlink.com 1.10,2013-04-24 10:56:00,
2013-04-24 06:11:00,36.0,33.0,30.06,NW,307,3.0,10.0,88,0.00,,,0.05,weatherlink.com 1.10,2013-04-24 11:11:00,
2013-04-24 06:26:00,35.9,32.0,30.06,WNW,293,4.0,8.0,87,0.00,,,0.05,weatherlink.com 1.10,2013-04-24 11:26:00,
2013-04-24 06:41:00,35.6,32.0,30.07,NW,315,2.0,10.0,87,0.00,,,0.05,weatherlink.com 1.10,2013-04-24 11:41:00,
2013-04-24 06:56:00,35.4,32.0,30.08,WNW,284,1.0,9.0,87,0.00,,,0.05,weatherlink.com 1.10,2013-04-24 11:56:00,
2013-04-24 07:11:00,35.3,32.0,30.08,NNW,327,3.0,9.0,86,0.00,,,0.05,weatherlink.com 1.10,2013-04-24 12:11:00,
2013-04-24 07:26:00,35.3,32.0,30.09,NNW,327,6.0,9.0,87,0.00,,,0.05,weatherlink.com 1.10,2013-04-24 12:26:00,
2013-04-24 07:41:00,35.3,32.0,30.09,NW,304,4.0,8.0,87,0.00,,,0.05,weatherlink.com 1.10,2013-04-24 12:41:00,
2013-04-24 07:56:00,35.5,31.0,30.09,NW,307,5.0,11.0,85,0.00,,,0.05,weatherlink.com 1.10,2013-04-24 12:56:00,
2013-04-24 08:11:00,35.7,32.0,30.11,NNW,328,4.0,11.0,85,0.00,,,0.05,weatherlink.com 1.10,2013-04-24 13:11:00,
2013-04-24 08:26:00,36.4,32.0,30.11,NW,319,5.0,10.0,84,0.00,,,0.05,weatherlink.com 1.10,2013-04-24 13:26:00,
2013-04-24 08:41:00,36.8,32.0,30.12,WNW,293,5.0,12.0,84,0.00,,,0.05,weatherlink.com 1.10,2013-04-24 13:41:00,
2013-04-24 08:56:00,37.4,32.0,30.12,NW,314,5.0,12.0,81,0.00,,,0.05,weatherlink.com 1.10,2013-04-24 13:56:00,
2013-04-24 09:11:00,37.7,33.0,30.12,WNW,297,1.0,7.0,82,0.00,,,0.05,weatherlink.com 1.10,2013-04-24 14:11:00,
2013-04-24 09:26:00,38.7,33.0,30.13,NW,304,5.0,10.0,81,0.00,,,0.05,weatherlink.com 1.10,2013-04-24 14:26:00,
2013-04-24 09:42:00,39.3,34.0,30.13,NW,308,3.0,11.0,80,0.00,,,0.05,weatherlink.com 1.10,2013-04-24 14:42:00,
2013-04-24 09:57:00,40.0,34.0,30.13,WNW,293,3.0,9.0,80,0.00,,,0.05,weatherlink.com 1.10,2013-04-24 14:57:00,
2013-04-24 10:12:00,40.6,34.0,30.13,NNW,343,5.0,11.0,76,0.00,,,0.05,weatherlink.com 1.10,2013-04-24 15:12:00,
2013-04-24 10:27:00,41.7,35.0,30.14,WNW,284,3.0,7.0,77,0.00,,,0.05,weatherlink.com 1.10,2013-04-24 15:27:00,
2013-04-24 10:42:00,41.8,35.0,30.14,WNW,301,3.0,8.0,76,0.00,,,0.05,weatherlink.com 1.10,2013-04-24 15:42:00,
2013-04-24 10:57:00,42.5,35.0,30.14,NW,307,8.0,9.0,76,0.00,,,0.05,weatherlink.com 1.10,2013-04-24 15:57:00,
2013-04-24 11:12:00,41.7,34.0,30.13,West,271,4.0,11.0,73,0.00,,,0.05,weatherlink.com 1.10,2013-04-24 16:12:00,
2013-04-24 11:27:00,42.0,33.0,30.14,NW,312,7.0,13.0,70,0.00,,,0.05,weatherlink.com 1.10,2013-04-24 16:27:00,
2013-04-24 11:42:00,42.1,31.0,30.14,NW,311,6.0,13.0,66,0.00,,,0.05,weatherlink.com 1.10,2013-04-24 16:42:00,
2013-04-24 11:57:00,42.7,32.0,30.14,NW,311,3.0,10.0,66,0.00,,,0.05,weatherlink.com 1.10,2013-04-24 16:57:00,
2013-04-24 12:12:00,43.4,33.0,30.14,WNW,298,3.0,11.0,67,0.00,,,0.05,weatherlink.com 1.10,2013-04-24 17:12:00,
2013-04-24 12:27:00,44.9,33.0,30.14,WSW,257,9.0,11.0,63,0.00,,,0.05,weatherlink.com 1.10,2013-04-24 17:27:00,
2013-04-24 12:42:00,43.9,31.0,30.14,WNW,287,6.0,12.0,62,0.00,,,0.05,weatherlink.com 1.10,2013-04-24 17:42:00,
2013-04-24 12:57:00,44.4,33.0,30.15,WNW,290,5.0,13.0,64,0.00,,,0.05,weatherlink.com 1.10,2013-04-24 17:57:00,
2013-04-24 13:12:00,45.0,33.0,30.14,West,267,12.0,12.0,63,0.00,,,0.05,weatherlink.com 1.10,2013-04-24 18:12:00,
2013-04-24 13:27:00,44.6,33.0,30.13,WNW,290,3.0,11.0,64,0.00,,,0.05,weatherlink.com 1.10,2013-04-24 18:27:00,
2013-04-24 13:42:00,46.0,34.0,30.14,WNW,290,5.0,14.0,63,0.00,,,0.05,weatherlink.com 1.10,2013-04-24 18:42:00,
2013-04-24 13:57:00,45.8,34.0,30.15,WNW,294,6.0,12.0,63,0.00,,,0.05,weatherlink.com 1.10,2013-04-24 18:57:00,
2013-04-24 14:12:00,46.9,33.0,30.14,WNW,290,7.0,15.0,59,0.00,,,0.05,weatherlink.com 1.10,2013-04-24 19:12:00,
2013-04-24 14:27:00,47.1,32.0,30.14,WNW,287,3.0,13.0,56,0.00,,,0.05,weatherlink.com 1.10,2013-04-24 19:27:00,
2013-04-24 14:42:00,47.4,33.0,30.14,WNW,288,4.0,13.0,57,0.00,,,0.05,weatherlink.com 1.10,2013-04-24 19:42:00,
2013-04-24 14:57:00,47.9,34.0,30.14,West,281,9.0,13.0,60,0.00,,,0.05,weatherlink.com 1.10,2013-04-24 19:57:00,
2013-04-24 15:12:00,48.6,34.0,30.13,NNW,340,7.0,13.0,58,0.00,,,0.05,weatherlink.com 1.10,2013-04-24 20:12:00,
2013-04-24 15:27:00,48.6,31.0,30.14,WSW,255,4.0,11.0,51,0.00,,,0.05,weatherlink.com 1.10,2013-04-24 20:27:00,
2013-04-24 15:42:00,49.2,32.0,30.13,West,273,5.0,12.0,52,0.00,,,0.05,weatherlink.com 1.10,2013-04-24 20:42:00,
2013-04-24 15:57:00,49.5,32.0,30.12,West,260,8.0,10.0,51,0.00,,,0.05,weatherlink.com 1.10,2013-04-24 20:57:00,
2013-04-24 16:12:00,49.5,32.0,30.12,West,278,8.0,9.0,52,0.00,,,0.05,weatherlink.com 1.10,2013-04-24 21:12:00,
2013-04-24 16:27:00,50.1,33.0,30.13,WNW,288,6.0,10.0,52,0.00,,,0.05,weatherlink.com 1.10,2013-04-24 21:27:00,
2013-04-24 16:42:00,50.6,32.0,30.13,WNW,283,5.0,12.0,50,0.00,,,0.05,weatherlink.com 1.10,2013-04-24 21:42:00,
2013-04-24 16:57:00,50.9,31.0,30.14,West,281,4.0,10.0,46,0.00,,,0.05,weatherlink.com 1.10,2013-04-24 21:57:00,
2013-04-24 17:12:00,50.3,33.0,30.14,WSW,255,3.0,8.0,52,0.00,,,0.05,weatherlink.com 1.10,2013-04-24 22:12:00,
2013-04-24 17:27:00,50.4,31.0,30.14,WSW,257,4.0,15.0,48,0.00,,,0.05,weatherlink.com 1.10,2013-04-24 22:27:00,
2013-04-24 17:43:00,50.4,30.0,30.14,WNW,299,2.0,12.0,45,0.00,,,0.05,weatherlink.com 1.10,2013-04-24 22:43:00,
2013-04-24 17:58:00,50.8,31.0,30.14,West,278,3.0,11.0,46,0.00,,,0.05,weatherlink.com 1.10,2013-04-24 22:58:00,
2013-04-24 18:13:00,50.9,30.0,30.14,WSW,246,6.0,10.0,45,0.00,,,0.05,weatherlink.com 1.10,2013-04-24 23:13:00,
2013-04-24 18:28:00,50.5,30.0,30.13,WSW,255,7.0,10.0,46,0.00,,,0.05,weatherlink.com 1.10,2013-04-24 23:28:00,
2013-04-24 18:43:00,50.2,29.0,30.13,WSW,257,5.0,10.0,45,0.00,,,0.05,weatherlink.com 1.10,2013-04-24 23:43:00,
2013-04-24 18:58:00,50.1,29.0,30.13,WNW,287,1.0,8.0,45,0.00,,,0.05,weatherlink.com 1.10,2013-04-24 23:58:00,
2013-04-24 19:13:00,49.6,29.0,30.13,West,280,3.0,10.0,45,0.00,,,0.05,weatherlink.com 1.10,2013-04-25 00:13:00,
2013-04-24 19:28:00,48.8,29.0,30.13,ESE,113,3.0,7.0,47,0.00,,,0.05,weatherlink.com 1.10,2013-04-25 00:28:00,
2013-04-24 19:43:00,47.3,29.0,30.14,NNW,330,0.0,2.0,49,0.00,,,0.05,weatherlink.com 1.10,2013-04-25 00:43:00,
2013-04-24 19:58:00,46.2,30.0,30.14,ESE,112,0.0,3.0,53,0.00,,,0.05,weatherlink.com 1.10,2013-04-25 00:58:00,
2013-04-24 20:13:00,45.2,30.0,30.14,South,188,1.0,3.0,56,0.00,,,0.05,weatherlink.com 1.10,2013-04-25 01:13:00,
2013-04-24 20:28:00,44.7,31.0,30.14,SSW,194,2.0,4.0,59,0.00,,,0.05,weatherlink.com 1.10,2013-04-25 01:28:00,
2013-04-24 20:43:00,44.3,32.0,30.15,South,180,2.0,4.0,62,0.00,,,0.05,weatherlink.com 1.10,2013-04-25 01:43:00,
2013-04-24 20:58:00,43.8,32.0,30.15,SSE,157,2.0,5.0,64,0.00,,,0.05,weatherlink.com 1.10,2013-04-25 01:58:00,
2013-04-24 21:13:00,43.5,32.0,30.16,SSW,193,3.0,4.0,65,0.00,,,0.05,weatherlink.com 1.10,2013-04-25 02:13:00,
2013-04-24 21:28:00,43.1,33.0,30.16,SSE,160,0.0,4.0,67,0.00,,,0.05,weatherlink.com 1.10,2013-04-25 02:28:00,
2013-04-24 21:43:00,42.9,33.0,30.16,SSE,160,2.0,4.0,68,0.00,,,0.05,weatherlink.com 1.10,2013-04-25 02:43:00,
2013-04-24 21:58:00,42.8,33.0,30.17,South,174,1.0,5.0,68,0.00,,,0.05,weatherlink.com 1.10,2013-04-25 02:58:00,
2013-04-24 22:28:00,42.5,33.0,30.16,WSW,243,1.0,8.0,70,0.00,,,0.05,weatherlink.com 1.10,2013-04-25 03:28:00,
2013-04-24 22:43:00,42.4,33.0,30.16,SSE,147,5.0,9.0,70,0.00,,,0.05,weatherlink.com 1.10,2013-04-25 03:43:00,
2013-04-24 22:58:00,42.2,33.0,30.16,SSE,149,2.0,6.0,71,0.00,,,0.05,weatherlink.com 1.10,2013-04-25 03:58:00,
2013-04-24 23:13:00,42.1,34.0,30.15,SE,146,2.0,9.0,72,0.00,,,0.05,weatherlink.com 1.10,2013-04-25 04:13:00,
2013-04-24 23:28:00,42.0,34.0,30.16,SE,134,1.0,9.0,72,0.00,,,0.05,weatherlink.com 1.10,2013-04-25 04:28:00,
2013-04-24 23:43:00,42.2,33.0,30.15,SW,229,3.0,8.0,71,0.00,,,0.05,weatherlink.com 1.10,2013-04-25 04:43:00,
2013-04-24 23:58:00,42.2,33.0,30.15,SSW,207,2.0,11.0,71,0.00,,,0.00,weatherlink.com 1.10,2013-04-25 04:58:00,